Hamilton Square, New Jersey
Current Conditions -  °F | °C
As of 9:53 AM on Friday 24 Oct 2014 (Local Time) from KTTN Reporting Station
Overcast Overcast  
Wind Chill: 55°   Ceiling: 3300
Heat Index: 55°   Visibility: 10mi
Dew Point: 42°   Wind: 15mph
Humidity: 62%   Direction: 350°N
Pressure: 29.85"   Gusts: 24mph
Location:  40.2318°N, 74.6526°W
Report Text: KTTN 241353Z 35013G21KT 10SM OVC033 13/06 A2985 RMK AO2 SLP102 T01280056
Loading
Personal Weather Stations






























Interactive Weather Map
Tropical Storm Tracking
New forecast layout! Learn more

10-Day Weather Forecast

Advertisements
Track Severe Weather on mobile